Time;durP1;ratioP1;P1;durP2;ratioP2;P2;SDS_P1;SDS_P2;PMS_P1;PMS_P2;Temp;Humidity;BMP_temperature;BMP_pressure;BME280_temperature;BME280_humidity;BME280_pressure;Samples;Min_cycle;Max_cycle;Signal;HPM_P1;HPM_P2
2022/08/07 00:01:36;;;;;;;9.35;1.90;;;;;;;25.30;43.96;101329.03;4822062;29;20027;-53
2022/08/07 00:04:03;;;;;;;3.97;1.92;;;;;;;25.27;43.94;101324.13;4807372;29;20035;-53
2022/08/07 00:06:29;;;;;;;4.70;1.98;;;;;;;25.35;42.86;101317.19;4805423;29;20167;-52
2022/08/07 00:08:56;;;;;;;6.18;1.85;;;;;;;25.49;42.77;101312.63;4805174;29;20122;-52
2022/08/07 00:11:22;;;;;;;6.60;2.05;;;;;;;25.36;42.00;101318.81;4805277;29;20034;-52
2022/08/07 00:13:48;;;;;;;3.67;1.50;;;;;;;25.25;42.94;101323.59;4804763;29;20057;-52
2022/08/07 00:16:14;;;;;;;4.68;2.03;;;;;;;25.03;43.45;101313.13;4805346;29;20047;-52
2022/08/07 00:18:41;;;;;;;4.32;1.70;;;;;;;25.12;43.04;101316.09;4806439;29;20039;-52
2022/08/07 00:21:09;;;;;;;3.25;1.30;;;;;;;25.11;42.76;101311.72;4804631;29;20126;-52
2022/08/07 00:23:37;;;;;;;4.30;1.52;;;;;;;24.86;43.83;101310.88;4811156;29;20065;-54
2022/08/07 00:26:06;;;;;;;11.07;1.98;;;;;;;24.62;44.19;101310.84;4805366;29;20441;-52
2022/08/07 00:28:33;;;;;;;4.88;1.70;;;;;;;24.54;44.81;101314.22;4812656;29;20037;-53
2022/08/07 00:31:03;;;;;;;3.45;1.33;;;;;;;24.55;43.96;101312.31;4817751;29;20039;-53
2022/08/07 00:33:29;;;;;;;2.53;1.70;;;;;;;24.38;44.24;101312.72;4804819;29;20042;-54
2022/08/07 00:35:56;;;;;;;2.80;1.70;;;;;;;24.05;45.12;101306.94;4804335;29;20501;-53
2022/08/07 00:38:23;;;;;;;4.13;1.73;;;;;;;24.36;45.75;101296.59;4804776;29;20039;-53
2022/08/07 00:40:49;;;;;;;5.75;1.75;;;;;;;24.30;45.20;101296.88;4823008;29;20061;-53
2022/08/07 00:43:16;;;;;;;3.78;1.63;;;;;;;24.06;45.23;101297.63;4823229;29;20082;-54
2022/08/07 00:45:42;;;;;;;3.80;1.42;;;;;;;24.24;45.10;101299.66;4819788;29;20109;-53
2022/08/07 00:48:11;;;;;;;3.13;1.40;;;;;;;24.21;45.80;101302.19;4813126;29;20114;-54
2022/08/07 00:50:39;;;;;;;7.97;2.20;;;;;;;24.30;46.22;101292.22;4820807;29;20034;-54
2022/08/07 00:53:05;;;;;;;3.55;1.88;;;;;;;24.11;45.41;101300.31;4804616;29;20039;-57
2022/08/07 00:55:32;;;;;;;5.10;2.35;;;;;;;23.59;46.82;101290.78;4807273;29;20038;-57
2022/08/07 00:57:58;;;;;;;5.43;1.80;;;;;;;23.61;46.96;101294.06;4822322;29;20452;-57
2022/08/07 01:00:25;;;;;;;7.88;2.10;;;;;;;23.65;47.10;101286.16;4809149;29;20035;-57
2022/08/07 01:02:51;;;;;;;3.92;1.90;;;;;;;23.35;47.64;101292.56;4810207;29;20481;-57
2022/08/07 01:05:19;;;;;;;4.45;2.35;;;;;;;23.18;47.92;101291.00;4822605;29;20060;-57
2022/08/07 01:07:46;;;;;;;6.55;2.33;;;;;;;23.26;48.29;101289.59;4821627;29;20033;-57
2022/08/07 01:10:13;;;;;;;4.30;1.85;;;;;;;22.85;49.07;101289.72;4822483;29;20507;-57
2022/08/07 01:12:41;;;;;;;4.45;1.75;;;;;;;22.91;49.45;101285.91;4822922;29;20038;-57
2022/08/07 01:15:09;;;;;;;3.67;2.15;;;;;;;22.96;49.14;101271.44;4826202;29;20042;-57
2022/08/07 01:17:36;;;;;;;7.97;2.05;;;;;;;22.36;49.86;101284.06;4826557;29;20037;-57
2022/08/07 01:20:08;;;;;;;4.53;2.03;;;;;;;21.78;51.72;101280.75;4820332;29;20068;-64
2022/08/07 01:22:37;;;;;;;4.03;2.00;;;;;;;22.13;51.68;101277.28;4821353;29;20405;-60
2022/08/07 01:25:04;;;;;;;9.75;2.70;;;;;;;22.23;51.59;101265.56;4818084;29;20050;-66
2022/08/07 01:27:30;;;;;;;9.27;2.35;;;;;;;22.38;50.60;101262.81;4820092;29;20039;-64
2022/08/07 01:29:57;;;;;;;3.40;1.83;;;;;;;22.03;51.84;101266.31;4810738;29;20046;-64
2022/08/07 01:32:24;;;;;;;5.85;2.40;;;;;;;21.95;51.83;101258.69;4807906;29;20027;-64
2022/08/07 01:34:50;;;;;;;2.42;1.98;;;;;;;21.99;51.88;101257.06;4813088;29;20030;-65
2022/08/07 01:37:17;;;;;;;7.30;2.10;;;;;;;22.25;51.95;101255.19;4824906;29;20030;-64
2022/08/07 01:39:45;;;;;;;4.03;1.50;;;;;;;22.57;50.54;101255.69;4809699;29;20037;-65
2022/08/07 01:42:15;;;;;;;5.28;1.70;;;;;;;22.84;48.82;101254.53;4823516;29;20034;-65
2022/08/07 01:44:42;;;;;;;3.38;1.77;;;;;;;22.97;48.35;101259.41;4825609;29;20022;-65
2022/08/07 01:47:08;;;;;;;4.35;1.60;;;;;;;23.18;47.60;101251.97;4807713;29;20118;-65
2022/08/07 01:49:36;;;;;;;4.85;1.60;;;;;;;23.23;47.69;101253.84;4808090;29;20038;-65
2022/08/07 01:52:04;;;;;;;8.05;1.58;;;;;;;23.36;47.46;101248.56;4807672;29;20093;-65
2022/08/07 01:54:36;;;;;;;4.97;1.77;;;;;;;23.59;47.03;101244.34;4807653;29;20097;-65
2022/08/07 01:57:12;;;;;;;3.90;1.45;;;;;;;23.84;46.06;101248.84;4809266;29;20030;-65
2022/08/07 01:59:47;;;;;;;6.00;1.60;;;;;;;23.86;46.12;101245.81;4807213;29;20035;-65
2022/08/07 02:02:24;;;;;;;5.50;2.72;;;;;;;24.00;44.92;101243.28;4807470;29;20031;-65
2022/08/07 02:04:57;;;;;;;5.18;2.63;;;;;;;23.87;45.26;101245.53;4807759;29;20038;-63
2022/08/07 02:07:28;;;;;;;7.97;1.98;;;;;;;23.95;45.35;101247.69;4810048;29;20066;-62
2022/08/07 02:09:56;;;;;;;2.38;1.67;;;;;;;23.68;46.16;101250.06;4810211;29;20031;-62
2022/08/07 02:12:25;;;;;;;6.35;1.73;;;;;;;23.89;45.45;101248.00;4825523;29;20030;-63
2022/08/07 02:14:55;;;;;;;4.35;1.88;;;;;;;24.01;45.33;101251.19;4822743;29;20094;-63
2022/08/07 02:17:23;;;;;;;4.88;1.92;;;;;;;23.85;45.58;101252.41;4825575;29;20034;-62
2022/08/07 02:19:53;;;;;;;3.88;1.67;;;;;;;23.70;45.73;101256.06;4825121;29;20531;-62
2022/08/07 02:22:20;;;;;;;9.98;2.00;;;;;;;23.95;45.47;101258.63;4825488;29;20676;-63
2022/08/07 02:24:50;;;;;;;3.45;1.27;;;;;;;23.89;45.44;101258.94;4806756;29;20050;-63
2022/08/07 02:27:19;;;;;;;5.30;1.65;;;;;;;23.98;45.43;101260.75;4816296;29;20030;-64
2022/08/07 02:29:47;;;;;;;9.57;2.50;;;;;;;24.10;44.93;101254.13;4806596;29;20026;-63
2022/08/07 02:32:15;;;;;;;7.03;1.90;;;;;;;24.30;44.57;101258.59;4818830;29;20121;-64
2022/08/07 02:34:43;;;;;;;3.97;1.63;;;;;;;24.28;44.26;101266.28;4824785;29;20026;-63
2022/08/07 02:37:10;;;;;;;4.30;1.50;;;;;;;24.22;44.79;101258.13;4825082;29;20064;-63
2022/08/07 02:39:41;;;;;;;3.45;1.98;;;;;;;24.11;44.88;101262.03;4823642;29;20026;-62
2022/08/07 02:42:08;;;;;;;6.45;1.88;;;;;;;23.51;46.37;101272.28;4812020;29;20050;-63
2022/08/07 02:44:35;;;;;;;3.63;1.80;;;;;;;23.50;46.48;101269.84;4815983;29;20030;-62
2022/08/07 02:47:03;;;;;;;8.45;1.80;;;;;;;23.28;47.31;101273.75;4812306;29;20027;-62
2022/08/07 02:49:30;;;;;;;4.72;1.80;;;;;;;23.28;46.97;101270.22;4823443;29;20034;-62
2022/08/07 02:51:59;;;;;;;5.78;1.90;;;;;;;23.00;48.20;101269.78;4819653;29;20102;-62
2022/08/07 02:54:29;;;;;;;6.38;2.30;;;;;;;22.73;48.99;101270.09;4812411;29;20038;-63
2022/08/07 02:57:00;;;;;;;3.13;1.88;;;;;;;22.38;49.75;101271.00;4807264;29;20038;-62
2022/08/07 02:59:28;;;;;;;4.22;1.77;;;;;;;22.34;50.17;101278.91;4820370;29;20492;-63
2022/08/07 03:01:56;;;;;;;5.03;2.15;;;;;;;22.06;50.36;101280.25;4808218;29;20030;-64
2022/08/07 03:04:23;;;;;;;6.43;2.13;;;;;;;21.91;50.96;101271.22;4824749;29;20075;-63
2022/08/07 03:06:51;;;;;;;4.55;2.17;;;;;;;21.88;51.25;101270.69;4808093;29;20031;-63
2022/08/07 03:09:20;;;;;;;6.78;2.30;;;;;;;21.77;51.52;101274.50;4806362;29;20038;-63
2022/08/07 03:11:47;;;;;;;5.32;2.03;;;;;;;21.51;52.01;101276.34;4820897;29;20484;-63
2022/08/07 03:14:14;;;;;;;8.20;2.40;;;;;;;21.48;52.44;101281.50;4822329;29;20042;-63
2022/08/07 03:16:41;;;;;;;5.65;2.58;;;;;;;21.23;53.58;101274.03;4815405;29;20065;-63
2022/08/07 03:19:09;;;;;;;6.80;2.70;;;;;;;21.20;53.30;101272.66;4813846;29;20027;-63
2022/08/07 03:21:36;;;;;;;6.75;2.42;;;;;;;21.02;53.75;101273.13;4832822;29;20387;-63
2022/08/07 03:24:03;;;;;;;6.38;2.85;;;;;;;20.63;55.25;101276.19;4817232;29;20183;-62
2022/08/07 03:26:32;;;;;;;5.35;2.45;;;;;;;20.46;55.64;101284.50;4792470;29;20046;-64
2022/08/07 03:29:02;;;;;;;7.68;2.78;;;;;;;20.42;55.97;101286.06;4806070;29;20393;-64
2022/08/07 03:31:29;;;;;;;6.10;2.67;;;;;;;20.30;56.16;101288.97;4807993;29;20031;-63
2022/08/07 03:34:02;;;;;;;8.35;2.38;;;;;;;20.38;56.27;101297.75;4814119;29;20066;-63
2022/08/07 03:36:29;;;;;;;8.73;2.40;;;;;;;20.22;56.62;101294.88;4816326;29;20396;-63
2022/08/07 03:39:04;;;;;;;7.35;2.53;;;;;;;20.06;56.86;101298.56;4823015;29;20034;-63
2022/08/07 03:41:32;;;;;;;6.47;2.58;;;;;;;20.02;56.60;101297.41;4830938;29;20124;-63
2022/08/07 03:43:59;;;;;;;6.18;2.78;;;;;;;20.17;56.62;101296.75;4823862;29;20033;-63
2022/08/07 03:46:27;;;;;;;4.63;2.47;;;;;;;20.00;57.07;101300.41;4835146;29;20026;-63
2022/08/07 03:48:54;;;;;;;6.88;2.75;;;;;;;20.07;56.91;101304.81;4829088;29;20031;-63
2022/08/07 03:51:21;;;;;;;6.05;2.70;;;;;;;19.94;57.54;101295.19;4805403;29;20500;-63
2022/08/07 03:53:48;;;;;;;5.25;3.40;;;;;;;19.89;57.25;101303.28;4805400;29;20091;-63
2022/08/07 03:56:20;;;;;;;7.88;3.03;;;;;;;19.94;57.59;101300.63;4809851;29;20023;-63
2022/08/07 03:58:47;;;;;;;8.60;3.10;;;;;;;19.59;58.25;101296.44;4836509;29;20026;-64
2022/08/07 04:01:16;;;;;;;5.47;2.58;;;;;;;19.91;57.53;101298.41;4824942;29;20394;-63
2022/08/07 04:03:43;;;;;;;4.13;2.38;;;;;;;19.84;57.52;101295.09;4841870;29;20045;-63
2022/08/07 04:06:10;;;;;;;8.10;3.00;;;;;;;19.63;57.88;101297.56;4824326;29;20358;-63
2022/08/07 04:08:40;;;;;;;6.82;3.20;;;;;;;19.68;58.05;101297.63;4805549;29;20110;-63
2022/08/07 04:11:07;;;;;;;3.95;2.15;;;;;;;19.59;58.43;101304.59;4805262;29;20109;-64
2022/08/07 04:13:35;;;;;;;6.40;2.30;;;;;;;19.59;58.14;101301.06;4804897;29;20035;-63
2022/08/07 04:16:01;;;;;;;4.45;2.53;;;;;;;19.58;58.67;101316.50;4805071;29;20152;-64
2022/08/07 04:18:28;;;;;;;7.72;2.65;;;;;;;19.59;58.14;101311.91;4805265;29;20050;-63
2022/08/07 04:20:54;;;;;;;7.75;2.80;;;;;;;19.58;58.64;101316.50;4804960;29;20030;-64
2022/08/07 04:23:21;;;;;;;7.82;2.83;;;;;;;19.53;58.63;101314.53;4814181;29;20042;-64
2022/08/07 04:25:48;;;;;;;6.63;2.35;;;;;;;19.61;58.07;101317.94;4823211;29;20073;-63
2022/08/07 04:28:14;;;;;;;4.93;2.55;;;;;;;19.56;58.64;101324.09;4820395;29;20030;-63
2022/08/07 04:30:41;;;;;;;7.35;3.13;;;;;;;19.34;59.62;101326.00;4812238;29;20445;-63
2022/08/07 04:33:09;;;;;;;7.93;3.67;;;;;;;19.43;59.19;101327.16;4804842;29;20066;-63
2022/08/07 04:35:37;;;;;;;6.38;3.47;;;;;;;19.46;59.13;101330.22;4802387;29;20521;-64
2022/08/07 04:38:05;;;;;;;8.40;2.80;;;;;;;19.47;58.63;101337.28;4823183;29;20095;-63
2022/08/07 04:40:32;;;;;;;7.88;2.15;;;;;;;19.35;59.45;101341.19;4811956;29;20027;-63
2022/08/07 04:42:58;;;;;;;7.22;2.67;;;;;;;19.31;59.49;101335.44;4804997;29;20031;-63
2022/08/07 04:45:33;;;;;;;6.15;2.50;;;;;;;19.49;58.97;101345.19;4817894;29;20441;-63
2022/08/07 04:48:20;;;;;;;8.43;2.63;;;;;;;19.34;59.17;101348.53;4830712;29;20034;-63
2022/08/07 04:51:19;;;;;;;7.32;2.15;;;;;;;19.23;59.70;101350.28;4841374;29;20038;-62
2022/08/07 04:54:12;;;;;;;5.45;2.40;;;;;;;19.28;59.91;101348.72;4787431;29;20050;-63
2022/08/07 04:57:03;;;;;;;7.32;2.47;;;;;;;19.15;59.86;101360.72;4831619;29;20030;-63
2022/08/07 04:59:34;;;;;;;7.22;2.60;;;;;;;19.25;59.78;101358.97;4804579;29;20027;-63
2022/08/07 05:02:11;;;;;;;7.05;2.40;;;;;;;19.16;60.31;101354.25;4804499;29;20114;-63
2022/08/07 05:04:48;;;;;;;12.90;3.42;;;;;;;19.20;60.63;101355.38;4812382;29;20114;-63
2022/08/07 05:07:37;;;;;;;6.22;3.13;;;;;;;19.01;60.88;101352.16;4823512;29;20058;-63
2022/08/07 05:10:07;;;;;;;7.15;2.92;;;;;;;18.92;61.32;101364.47;4831767;29;20066;-63
2022/08/07 05:13:16;;;;;;;8.98;2.83;;;;;;;19.04;61.03;101367.09;4822679;29;20053;-63
2022/08/07 05:15:48;;;;;;;6.70;2.83;;;;;;;19.12;60.94;101370.22;4748445;30;20543;-63
2022/08/07 05:18:29;;;;;;;5.88;2.35;;;;;;;19.06;60.91;101373.94;4748742;30;20033;-63
2022/08/07 05:21:03;;;;;;;8.18;2.72;;;;;;;19.01;60.83;101375.75;4784155;29;20096;-63
2022/08/07 05:23:35;;;;;;;5.93;2.28;;;;;;;18.88;61.51;101375.03;4804314;29;20105;-63
2022/08/07 05:26:04;;;;;;;5.97;2.47;;;;;;;18.81;61.78;101373.53;4804334;29;20105;-63
2022/08/07 05:28:34;;;;;;;6.63;2.80;;;;;;;18.78;61.56;101374.03;4804473;29;20027;-63
2022/08/07 05:31:01;;;;;;;6.93;2.90;;;;;;;18.69;62.00;101370.91;4805256;29;20400;-63
2022/08/07 05:33:29;;;;;;;6.95;2.55;;;;;;;18.72;62.07;101376.66;4804245;29;20030;-63
2022/08/07 05:35:57;;;;;;;5.60;2.58;;;;;;;18.77;61.97;101377.81;4804435;29;20027;-63
2022/08/07 05:38:24;;;;;;;6.40;3.22;;;;;;;18.68;62.41;101374.69;4810086;29;20087;-63
2022/08/07 05:40:51;;;;;;;4.55;2.90;;;;;;;18.81;62.27;101373.53;4822158;29;20038;-63
2022/08/07 05:43:18;;;;;;;6.20;3.17;;;;;;;18.58;62.43;101366.38;4822676;29;20067;-64
2022/08/07 05:45:47;;;;;;;6.03;2.72;;;;;;;18.54;62.53;101368.72;4822558;29;20049;-63
2022/08/07 05:48:14;;;;;;;8.70;3.00;;;;;;;18.56;62.87;101363.91;4813707;29;20046;-63
2022/08/07 05:50:41;;;;;;;7.32;2.92;;;;;;;18.37;63.79;101366.00;4804135;29;20500;-63
2022/08/07 05:53:07;;;;;;;5.45;2.83;;;;;;;18.60;63.22;101369.63;4787966;29;20034;-63
2022/08/07 05:55:34;;;;;;;5.78;2.83;;;;;;;18.39;63.48;101366.59;4810840;29;20038;-63
2022/08/07 05:58:02;;;;;;;8.15;3.15;;;;;;;18.18;64.42;101365.41;4822295;29;20054;-63
2022/08/07 06:00:32;;;;;;;10.23;3.00;;;;;;;18.42;64.06;101365.28;4831027;29;20483;-63
2022/08/07 06:03:00;;;;;;;8.30;2.90;;;;;;;18.41;63.84;101369.06;4843883;29;20068;-63
2022/08/07 06:05:27;;;;;;;8.23;2.80;;;;;;;18.51;63.45;101366.53;4819482;29;20074;-63
2022/08/07 06:07:56;;;;;;;6.63;2.90;;;;;;;18.44;63.59;101352.31;4807695;29;20031;-63
2022/08/07 06:10:23;;;;;;;7.28;2.80;;;;;;;18.36;63.48;101366.25;4840338;29;20026;-63
2022/08/07 06:12:50;;;;;;;6.53;2.78;;;;;;;18.30;63.80;101368.06;4825762;29;20027;-63
2022/08/07 06:15:17;;;;;;;5.28;3.35;;;;;;;18.23;64.26;101359.28;4806951;29;20400;-63
2022/08/07 06:17:45;;;;;;;9.30;3.60;;;;;;;18.15;64.55;101360.47;4807296;29;20035;-63
2022/08/07 06:20:12;;;;;;;11.18;3.97;;;;;;;18.17;64.11;101361.06;4807040;29;20038;-63
2022/08/07 06:22:41;;;;;;;7.30;3.45;;;;;;;18.21;63.99;101364.09;4808233;29;20027;-63
2022/08/07 06:25:08;;;;;;;6.93;3.70;;;;;;;18.16;63.81;101367.56;4837655;29;20060;-63
2022/08/07 06:27:34;;;;;;;8.48;4.03;;;;;;;18.13;63.92;101357.19;4843744;29;20522;-63
2022/08/07 06:30:01;;;;;;;8.80;3.83;;;;;;;18.07;63.99;101360.88;4822023;29;20036;-63
2022/08/07 06:32:27;;;;;;;8.13;3.53;;;;;;;18.04;64.09;101364.06;4807233;29;20160;-63
2022/08/07 06:34:53;;;;;;;8.88;3.97;;;;;;;18.09;64.00;101361.44;4806966;29;20035;-63
2022/08/07 06:37:19;;;;;;;10.23;5.32;;;;;;;18.02;64.05;101359.97;4807159;29;20031;-63
2022/08/07 06:39:45;;;;;;;10.65;4.13;;;;;;;18.07;64.52;101368.19;4816753;29;20056;-63
2022/08/07 06:42:18;;;;;;;6.47;3.17;;;;;;;18.15;63.95;101362.38;4824958;29;20038;-63
2022/08/07 06:44:50;;;;;;;6.72;3.15;;;;;;;18.01;64.25;101363.75;4824683;29;20061;-63
2022/08/07 06:47:16;;;;;;;7.03;2.38;;;;;;;17.84;64.67;101361.00;4812680;29;20080;-63
2022/08/07 06:49:44;;;;;;;7.88;3.40;;;;;;;17.85;64.71;101360.75;4806426;29;20124;-63
2022/08/07 06:52:12;;;;;;;6.82;2.97;;;;;;;17.94;64.34;101363.91;4806686;29;20054;-63
2022/08/07 06:54:39;;;;;;;7.38;2.78;;;;;;;17.97;64.12;101357.97;4806690;29;20039;-63
2022/08/07 06:57:08;;;;;;;8.15;3.55;;;;;;;17.90;64.47;101360.03;4807702;29;20027;-63
2022/08/07 06:59:42;;;;;;;6.20;3.38;;;;;;;17.91;64.73;101364.38;4806304;29;20043;-63
2022/08/07 07:02:29;;;;;;;5.95;2.45;;;;;;;17.79;65.43;101366.31;4806489;29;20049;-63
2022/08/07 07:04:56;;;;;;;6.20;2.58;;;;;;;17.78;65.61;101367.38;4806113;29;20110;-63
2022/08/07 07:07:22;;;;;;;8.15;2.60;;;;;;;17.69;65.39;101367.72;4806302;29;20114;-63
2022/08/07 07:09:49;;;;;;;4.95;2.20;;;;;;;17.80;65.52;101376.06;4806161;29;20374;-63
2022/08/07 07:12:34;;;;;;;5.03;2.55;;;;;;;17.75;65.66;101367.84;4806743;29;20537;-63
2022/08/07 07:15:30;;;;;;;6.88;2.50;;;;;;;17.76;65.28;101377.59;4806034;29;20049;-63
2022/08/07 07:18:00;;;;;;;11.60;2.55;;;;;;;17.69;65.27;101372.31;4806262;29;20042;-63
2022/08/07 07:20:35;;;;;;;9.45;2.80;;;;;;;17.71;65.44;101378.28;4806456;29;20030;-63
2022/08/07 07:23:01;;;;;;;6.20;2.20;;;;;;;17.63;65.52;101384.91;4806367;29;20084;-63
2022/08/07 07:25:28;;;;;;;5.57;2.72;;;;;;;17.57;65.58;101380.47;4805990;29;20496;-63
2022/08/07 07:28:02;;;;;;;6.40;2.33;;;;;;;17.61;65.25;101386.22;4806111;29;20031;-63
2022/08/07 07:30:35;;;;;;;8.70;2.53;;;;;;;17.49;65.71;101385.41;4806880;29;20054;-63
2022/08/07 07:33:04;;;;;;;7.75;2.83;;;;;;;17.46;65.68;101385.91;4806156;29;20130;-63
2022/08/07 07:35:34;;;;;;;5.50;2.78;;;;;;;17.46;65.69;101392.13;4805842;29;20107;-63
2022/08/07 07:38:02;;;;;;;9.77;3.15;;;;;;;17.41;65.56;101394.72;4815628;29;20109;-63
2022/08/07 07:40:32;;;;;;;9.40;3.03;;;;;;;17.37;65.36;101398.97;4823682;29;20049;-63
2022/08/07 07:43:02;;;;;;;7.80;3.35;;;;;;;17.35;65.85;101392.97;4824054;29;20373;-63
2022/08/07 07:45:31;;;;;;;6.30;3.30;;;;;;;17.34;65.52;101391.34;4823970;29;20480;-63
2022/08/07 07:47:59;;;;;;;8.20;3.40;;;;;;;17.30;65.97;101395.56;4823001;29;20151;-63
2022/08/07 07:50:27;;;;;;;7.63;3.28;;;;;;;17.30;65.96;101387.44;4823263;29;20026;-63
2022/08/07 07:52:55;;;;;;;8.98;3.50;;;;;;;17.31;65.70;101383.69;4824089;29;20022;-62
2022/08/07 07:55:23;;;;;;;5.28;3.05;;;;;;;17.29;65.79;101392.03;4810027;29;20438;-62
2022/08/07 07:57:51;;;;;;;10.77;2.75;;;;;;;17.21;66.08;101386.16;4805595;29;20445;-62
2022/08/07 08:00:17;;;;;;;8.70;2.90;;;;;;;17.21;66.38;101386.16;4810390;29;20026;-62
2022/08/07 08:02:47;;;;;;;7.25;2.90;;;;;;;17.14;66.19;101380.88;4823607;29;20038;-63
2022/08/07 08:05:16;;;;;;;11.02;2.85;;;;;;;17.12;66.52;101380.31;4806745;29;20074;-62
2022/08/07 08:07:44;;;;;;;6.45;2.53;;;;;;;17.03;66.46;101384.41;4805719;29;20085;-62
2022/08/07 08:10:13;;;;;;;7.00;2.65;;;;;;;17.17;66.53;101382.31;4805028;29;20111;-62
2022/08/07 08:12:40;;;;;;;8.43;2.80;;;;;;;17.00;66.48;101371.38;4820491;29;20019;-62
2022/08/07 08:15:07;;;;;;;6.20;2.38;;;;;;;16.93;66.79;101373.34;4818771;29;20117;-62
2022/08/07 08:17:35;;;;;;;3.85;2.45;;;;;;;16.86;66.72;101371.59;4840970;29;20052;-62
2022/08/07 08:20:07;;;;;;;8.30;2.95;;;;;;;16.84;66.46;101376.44;4840484;29;20475;-62
2022/08/07 08:28:16;;;;;;;8.50;2.35;;;;;;;16.76;67.14;101381.34;4817597;29;20104;-62
2022/08/07 08:30:44;;;;;;;7.35;2.58;;;;;;;16.72;67.45;101386.41;4811958;29;20027;-62
2022/08/07 08:33:17;;;;;;;5.47;2.63;;;;;;;16.67;67.47;101382.72;4816384;29;20065;-62
2022/08/07 08:35:48;;;;;;;3.75;2.50;;;;;;;16.70;67.57;101387.66;4824807;29;20042;-62
2022/08/07 08:38:17;;;;;;;7.53;2.95;;;;;;;16.60;68.84;101377.41;4806110;29;20038;-62
2022/08/07 08:41:04;;;;;;;5.22;2.53;;;;;;;16.57;69.28;101380.59;4804614;29;20405;-62
2022/08/07 08:43:39;;;;;;;6.35;2.58;;;;;;;16.52;68.96;101383.97;4805236;29;20492;-62
2022/08/07 08:46:47;;;;;;;7.85;2.53;;;;;;;16.57;69.36;101386.81;4815659;29;20232;-62
2022/08/07 08:49:45;;;;;;;4.50;2.33;;;;;;;16.52;69.52;101383.97;4797801;29;20092;-62
2022/08/07 08:52:25;;;;;;;7.35;2.50;;;;;;;16.63;69.34;101385.88;4796509;29;20125;-62
2022/08/07 08:55:18;;;;;;;5.32;2.67;;;;;;;16.55;69.52;101386.25;4805176;29;20125;-62
2022/08/07 08:57:57;;;;;;;5.97;2.45;;;;;;;16.50;69.59;101374.47;4804579;29;20125;-62
2022/08/07 09:00:27;;;;;;;6.70;2.67;;;;;;;16.44;69.85;101387.03;4804740;29;20463;-62
2022/08/07 09:03:09;;;;;;;6.35;2.60;;;;;;;16.46;69.94;101389.50;4812273;29;20053;-62
2022/08/07 09:06:04;;;;;;;5.85;3.17;;;;;;;16.54;70.19;101381.88;4813904;29;20049;-62
2022/08/07 09:08:47;;;;;;;8.13;2.80;;;;;;;16.45;70.13;101375.16;4821742;29;20070;-62
2022/08/07 09:11:23;;;;;;;5.53;2.70;;;;;;;16.54;70.46;101383.75;4805079;29;20104;-62
2022/08/07 09:14:27;;;;;;;8.00;2.72;;;;;;;16.49;70.56;101380.91;4804497;29;20481;-62
2022/08/07 09:17:00;;;;;;;4.88;2.80;;;;;;;16.43;70.58;101392.66;4782329;29;20049;-62
2022/08/07 09:19:41;;;;;;;9.43;3.40;;;;;;;16.43;70.73;101390.78;4816109;29;20022;-62
2022/08/07 09:22:39;;;;;;;7.18;2.78;;;;;;;16.43;70.39;101388.06;4815689;29;20092;-62
2022/08/07 09:25:21;;;;;;;4.95;2.47;;;;;;;16.33;71.07;101394.06;4810457;29;20053;-62
2022/08/07 09:27:59;;;;;;;7.22;3.10;;;;;;;16.47;70.85;101397.38;4806104;29;20038;-62
2022/08/07 09:30:36;;;;;;;7.68;3.05;;;;;;;16.43;70.61;101390.78;4804417;29;20091;-62
2022/08/07 09:33:21;;;;;;;9.10;3.28;;;;;;;16.51;71.00;101392.34;4804271;29;20031;-62
2022/08/07 09:36:14;;;;;;;7.68;3.05;;;;;;;16.54;71.74;101398.06;4790919;29;20506;-62
2022/08/07 09:38:54;;;;;;;8.98;3.00;;;;;;;16.49;72.15;101397.97;4807463;29;20058;-62
2022/08/07 09:41:55;;;;;;;6.80;3.00;;;;;;;16.56;72.48;101385.19;4807963;29;20071;-62
2022/08/07 09:44:30;;;;;;;6.18;3.00;;;;;;;16.62;72.43;101389.66;4795075;29;20050;-62
2022/08/07 09:47:32;;;;;;;6.97;3.20;;;;;;;16.70;72.22;101391.19;4808969;29;20084;-62
2022/08/07 09:50:25;;;;;;;7.78;2.83;;;;;;;16.74;72.33;101388.88;4807457;29;20078;-62
2022/08/07 09:53:03;;;;;;;7.05;3.20;;;;;;;16.67;73.05;101380.84;4791764;29;20105;-62
2022/08/07 09:56:08;;;;;;;12.60;3.67;;;;;;;16.80;72.51;101386.06;4825800;29;20456;-62
2022/08/07 09:59:11;;;;;;;10.15;2.85;;;;;;;16.87;72.49;101391.34;4825552;29;20035;-62
2022/08/07 10:02:07;;;;;;;6.57;2.80;;;;;;;16.91;72.30;101389.81;4825523;29;20030;-62
2022/08/07 10:04:52;;;;;;;7.75;3.10;;;;;;;16.99;72.20;101386.78;4807776;29;20374;-62
2022/08/07 10:07:56;;;;;;;10.13;3.15;;;;;;;17.00;72.13;101396.53;4807287;29;20039;-62
2022/08/07 10:10:34;;;;;;;8.98;3.20;;;;;;;17.02;72.42;101388.19;4807447;29;20031;-63
2022/08/07 10:13:36;;;;;;;7.60;2.97;;;;;;;17.10;71.42;101396.78;4807362;29;20215;-62
2022/08/07 10:16:08;;;;;;;10.68;3.35;;;;;;;17.17;71.11;101395.84;4801446;29;20042;-62
2022/08/07 10:18:37;;;;;;;8.82;3.38;;;;;;;17.17;71.14;101396.66;4843439;29;20045;-62
2022/08/07 10:21:23;;;;;;;10.77;3.05;;;;;;;17.26;70.64;101388.97;4812687;29;20035;-62
2022/08/07 10:23:55;;;;;;;;;;;;;;;17.30;70.92;101390.16;4807433;29;20038;-63
2022/08/07 10:26:27;;;;;;;6.80;2.70;;;;;;;17.33;70.21;101398.63;4807104;29;20401;-65
2022/08/07 10:29:27;;;;;;;6.07;3.20;;;;;;;17.36;70.21;101400.03;4823576;29;20113;-65
2022/08/07 10:32:49;;;;;;;6.75;2.83;;;;;;;17.38;70.26;101403.34;4825127;29;20035;-65
2022/08/07 10:35:26;;;;;;;9.48;2.42;;;;;;;17.31;69.75;101394.50;4751292;30;20105;-65
2022/08/07 10:38:30;;;;;;;7.20;2.60;;;;;;;17.41;69.52;101390.13;4737443;30;20119;-66
2022/08/07 10:41:09;;;;;;;7.10;2.90;;;;;;;17.37;69.93;101399.78;4764658;30;20047;-63
2022/08/07 10:43:47;;;;;;;5.70;2.70;;;;;;;17.35;69.72;101392.97;4766698;30;20073;-63
2022/08/07 10:46:19;;;;;;;7.00;2.83;;;;;;;17.34;69.83;101400.28;4785713;29;20085;-63
2022/08/07 10:49:04;;;;;;;9.13;2.70;;;;;;;17.51;69.70;101407.66;4823315;29;20034;-64
2022/08/07 10:51:56;;;;;;;4.78;2.80;;;;;;;17.49;69.29;101405.22;4822075;29;20073;-64
2022/08/07 10:54:42;;;;;;;12.90;2.97;;;;;;;17.49;69.22;101405.22;4804113;29;20042;-63
2022/08/07 10:57:47;;;;;;;7.85;3.53;;;;;;;17.56;69.18;101400.47;4813766;29;20038;-63
2022/08/07 11:00:15;;;;;;;4.72;2.38;;;;;;;17.53;69.59;101405.53;4812196;29;20082;-63
2022/08/07 11:02:56;;;;;;;9.30;2.80;;;;;;;17.52;69.35;101403.91;4809482;29;20034;-63
2022/08/07 11:05:40;;;;;;;8.40;2.88;;;;;;;17.60;68.60;101401.66;4823757;29;20400;-63
2022/08/07 11:08:31;;;;;;;5.85;2.58;;;;;;;17.79;67.97;101410.44;4808416;29;20451;-62
2022/08/07 11:11:21;;;;;;;5.00;2.58;;;;;;;17.77;67.88;101417.19;4819366;29;20113;-64
2022/08/07 11:14:19;;;;;;;9.05;3.10;;;;;;;17.99;66.71;101420.03;4823137;29;20741;-60
2022/08/07 11:17:25;;;;;;;7.30;2.95;;;;;;;17.76;67.64;101415.50;4823174;29;20046;-61
2022/08/07 11:20:30;;;;;;;7.35;2.50;;;;;;;17.73;67.58;101421.44;4805701;29;20047;-60
2022/08/07 11:23:08;;;;;;;5.45;2.55;;;;;;;17.66;67.83;101425.06;4794952;29;20519;-60
2022/08/07 11:25:39;;;;;;;4.70;2.05;;;;;;;17.71;68.01;101428.91;4808688;29;20051;-61
2022/08/07 11:28:08;;;;;;;6.10;2.58;;;;;;;17.69;68.67;101419.16;4805957;29;20030;-61
2022/08/07 11:30:49;;;;;;;6.70;2.45;;;;;;;17.84;67.57;101423.28;4810000;29;20137;-62
2022/08/07 11:33:46;;;;;;;8.35;3.00;;;;;;;17.80;67.70;101419.41;4824126;29;20061;-60
2022/08/07 11:36:49;;;;;;;6.00;2.60;;;;;;;17.80;67.24;101420.22;4819823;29;20389;-61
2022/08/07 11:39:32;;;;;;;6.80;3.00;;;;;;;17.83;67.59;101418.94;4823977;29;20379;-62
2022/08/07 11:42:38;;;;;;;6.18;2.78;;;;;;;17.71;67.72;101420.78;4808420;29;20497;-62
2022/08/07 11:45:40;;;;;;;9.55;3.10;;;;;;;17.69;67.65;101421.03;4785912;29;20049;-62
2022/08/07 11:48:27;;;;;;;8.48;2.25;;;;;;;17.74;67.92;101426.59;4813027;29;20121;-62
2022/08/07 11:51:12;;;;;;;8.40;2.75;;;;;;;17.71;67.82;101431.63;4822753;29;20034;-62
2022/08/07 11:53:44;;;;;;;4.15;2.38;;;;;;;17.75;67.32;101425.53;4810639;29;20144;-62
2022/08/07 11:56:35;;;;;;;8.65;2.90;;;;;;;17.76;67.57;101420.94;4823781;29;20171;-62
2022/08/07 11:59:40;;;;;;;6.18;2.55;;;;;;;17.71;67.15;101421.59;4828276;29;20061;-63
2022/08/07 12:02:18;;;;;;;9.18;3.17;;;;;;;17.71;67.25;101427.03;4824333;29;20564;-63